Mogadishu, Somalia
Current Conditions -  °F | °C
As of 9:55 PM on Friday 31 Oct 2014 (Local Time) from KQVF Reporting Station
Clear Clear  
Wind Chill: 79°   Ceiling: Unl
Heat Index: 83°   Visibility: 6mi
Dew Point: 74°   Wind: 2mph
Humidity: 82%   Direction: NA
Pressure: 29.95"   Gusts: NA
Location:  2.05°N, 45.33°E
Report Text: KQVF 311855Z AUTO VRB02KT 9999 CLR 26/23 A2995 RMK AO2 SLP142 T02630231
Loading
Personal Weather Stations






























Interactive Weather Map
Tropical Storm Tracking
New forecast layout! Learn more

10-Day Weather Forecast

Advertisements
Track Severe Weather on mobile